createdAt,value
2023-01-13T00:01:11.296Z,10.00
2023-01-13T00:08:51.131Z,9.60
2023-01-13T00:11:18.632Z,9.40
2023-01-13T00:13:45.280Z,9.20
2023-01-13T00:16:15.506Z,9.20
2023-01-13T00:18:42.236Z,9.10
2023-01-13T00:21:14.879Z,9.20
2023-01-13T00:23:41.926Z,9.10
2023-01-13T00:26:11.992Z,9.10
2023-01-13T00:28:38.615Z,9.00
2023-01-13T00:31:10.330Z,9.00
2023-01-13T00:33:37.424Z,9.00
2023-01-13T00:36:05.817Z,9.10
2023-01-13T00:38:34.049Z,9.20
2023-01-13T00:41:03.158Z,9.20
2023-01-13T00:43:32.499Z,9.30
2023-01-13T00:45:59.924Z,9.40
2023-01-13T00:48:27.338Z,9.50
2023-01-13T00:50:59.782Z,9.50
2023-01-13T00:53:27.540Z,9.40
2023-01-13T00:56:00.874Z,9.50
2023-01-13T00:58:28.004Z,9.50
2023-01-13T01:00:54.663Z,9.50
2023-01-13T01:03:21.366Z,9.60
2023-01-13T01:05:48.186Z,9.60
2023-01-13T01:08:14.960Z,9.50
2023-01-13T01:10:41.553Z,9.40
2023-01-13T01:13:08.168Z,9.40
2023-01-13T01:15:34.921Z,9.40
2023-01-13T01:18:01.495Z,9.40
2023-01-13T01:20:28.101Z,9.40
2023-01-13T01:22:54.832Z,9.40
2023-01-13T01:25:21.367Z,9.30
2023-01-13T01:27:47.936Z,9.30
2023-01-13T01:30:14.917Z,9.30
2023-01-13T01:32:41.835Z,9.30
2023-01-13T01:35:08.662Z,9.20
2023-01-13T01:37:35.237Z,9.20
2023-01-13T01:40:01.836Z,9.20
2023-01-13T01:42:46.804Z,9.10
2023-01-13T01:45:24.210Z,9.10
2023-01-13T01:47:57.231Z,9.00
2023-01-13T01:50:24.208Z,9.00
2023-01-13T01:52:57.241Z,9.10
2023-01-13T01:55:30.721Z,9.00
2023-01-13T01:58:11.462Z,9.00
2023-01-13T02:00:38.628Z,9.00
2023-01-13T02:03:07.382Z,9.00
2023-01-13T02:05:36.954Z,9.00
2023-01-13T02:08:04.095Z,9.00
2023-01-13T02:10:32.116Z,9.00
2023-01-13T02:13:02.604Z,9.00
2023-01-13T02:15:35.112Z,8.90
2023-01-13T02:18:39.411Z,9.00
2023-01-13T02:21:31.629Z,9.00
2023-01-13T02:24:56.580Z,9.00
2023-01-13T02:27:52.828Z,9.10
2023-01-13T02:31:04.156Z,9.10
2023-01-13T02:33:49.452Z,9.00
2023-01-13T02:36:33.385Z,9.00
2023-01-13T02:39:21.072Z,9.00
2023-01-13T02:42:10.223Z,8.90
2023-01-13T02:44:45.405Z,9.00
2023-01-13T02:47:25.114Z,9.00
2023-01-13T02:49:58.501Z,9.00
2023-01-13T02:52:46.502Z,9.00
2023-01-13T02:55:20.992Z,8.90
2023-01-13T02:57:49.469Z,8.90
2023-01-13T03:00:18.410Z,8.90
2023-01-13T03:02:45.228Z,8.90
2023-01-13T03:05:16.298Z,8.80
2023-01-13T03:08:01.748Z,8.80
2023-01-13T03:11:13.801Z,8.80
2023-01-13T03:14:02.233Z,8.80
2023-01-13T03:16:45.752Z,8.90
2023-01-13T03:19:26.614Z,8.80
2023-01-13T03:22:38.915Z,8.70
2023-01-13T03:25:25.671Z,8.70
2023-01-13T03:27:59.377Z,8.70
2023-01-13T03:30:34.185Z,8.70
2023-01-13T03:33:15.428Z,8.60
2023-01-13T03:35:49.076Z,8.60
2023-01-13T03:38:32.489Z,8.70
2023-01-13T03:41:05.584Z,8.60
2023-01-13T03:44:13.626Z,8.70
2023-01-13T03:47:09.064Z,8.70
2023-01-13T03:49:58.189Z,8.80
2023-01-13T03:52:29.399Z,8.70
2023-01-13T03:55:05.119Z,8.70
2023-01-13T03:57:35.322Z,8.60
2023-01-13T04:00:05.604Z,8.50
2023-01-13T04:02:53.507Z,8.40
2023-01-13T04:05:20.785Z,8.40
2023-01-13T04:08:02.775Z,8.40
2023-01-13T04:10:40.922Z,8.40
2023-01-13T04:13:12.751Z,8.40
2023-01-13T04:15:45.086Z,8.40
2023-01-13T04:18:22.088Z,8.40
2023-01-13T04:20:51.854Z,8.30
2023-01-13T04:23:20.230Z,8.30
2023-01-13T06:24:29.530Z,8.00
2023-01-13T06:26:56.620Z,8.10
2023-01-13T06:29:23.219Z,8.10
2023-01-13T06:31:50.079Z,8.00
2023-01-13T06:34:17.185Z,8.00
2023-01-13T06:36:47.445Z,8.00
2023-01-13T06:39:26.014Z,8.00
2023-01-13T06:42:13.090Z,8.00
2023-01-13T06:44:39.858Z,8.00
2023-01-13T06:47:07.285Z,8.00
2023-01-13T06:49:34.044Z,8.00
2023-01-13T06:52:00.646Z,8.00
2023-01-13T06:54:27.970Z,8.00
2023-01-13T06:56:55.044Z,7.90
2023-01-13T07:02:13.056Z,8.00
2023-01-13T07:04:39.992Z,8.00
2023-01-13T07:07:08.346Z,8.00
2023-01-13T07:09:35.074Z,8.00
2023-01-13T07:12:01.883Z,8.00
2023-01-13T07:14:47.248Z,8.00
2023-01-13T07:17:13.862Z,8.10
2023-01-13T07:19:45.159Z,8.10
2023-01-13T07:22:13.937Z,8.20
2023-01-13T07:24:40.800Z,8.10
2023-01-13T07:27:07.388Z,8.10
2023-01-13T07:29:34.141Z,8.00
2023-01-13T07:32:01.436Z,8.00
2023-01-13T07:34:28.269Z,8.00
2023-01-13T07:36:55.122Z,8.00
2023-01-13T07:39:21.870Z,8.00
2023-01-13T07:42:08.450Z,8.00
2023-01-13T07:44:35.031Z,8.00
2023-01-13T07:47:01.779Z,8.00
2023-01-13T07:49:32.253Z,8.00
2023-01-13T07:51:58.856Z,8.00
2023-01-13T07:54:40.140Z,8.00
2023-01-13T07:57:07.530Z,8.10
2023-01-13T07:59:37.233Z,8.00
2023-01-13T08:02:04.246Z,8.00
2023-01-13T08:04:33.656Z,8.10
2023-01-13T08:07:00.405Z,8.00
2023-01-13T08:09:27.049Z,8.00
2023-01-13T08:12:15.292Z,8.10
2023-01-13T08:14:42.122Z,8.20
2023-01-13T08:17:11.855Z,8.30
2023-01-13T08:19:42.340Z,8.30
2023-01-13T08:22:09.096Z,8.30
2023-01-13T08:24:35.929Z,8.30
2023-01-13T08:27:04.485Z,8.40
2023-01-13T08:29:32.520Z,8.40
2023-01-13T08:31:59.223Z,8.40
2023-01-13T08:34:25.882Z,8.40
2023-01-13T08:36:52.589Z,8.40
2023-01-13T08:39:19.700Z,8.40
2023-01-13T08:41:58.285Z,8.50
2023-01-13T08:44:28.107Z,8.50
2023-01-13T08:46:58.680Z,8.50
2023-01-13T08:49:26.824Z,8.50
2023-01-13T08:51:56.911Z,8.50
2023-01-13T08:54:23.647Z,8.50
2023-01-13T08:56:52.632Z,8.50
2023-01-13T08:59:25.543Z,8.50
2023-01-13T09:01:52.508Z,8.50
2023-01-13T09:04:23.347Z,8.50
2023-01-13T09:06:51.645Z,8.60
2023-01-13T09:09:18.533Z,8.60
2023-01-13T09:12:09.925Z,8.50
2023-01-13T09:14:38.235Z,8.50
2023-01-13T09:17:08.297Z,8.60
2023-01-13T09:19:37.960Z,8.60
2023-01-13T09:22:04.729Z,8.60
2023-01-13T09:24:31.518Z,8.60
2023-01-13T09:26:58.211Z,8.70
2023-01-13T09:29:25.244Z,8.80
2023-01-13T09:31:51.901Z,8.80
2023-01-13T09:34:39.033Z,8.80
2023-01-13T09:37:06.999Z,8.80
2023-01-13T09:39:34.683Z,8.80
2023-01-13T09:42:31.044Z,8.70
2023-01-13T09:45:09.808Z,8.70
2023-01-13T09:48:07.750Z,8.70
2023-01-13T09:50:45.035Z,8.60
2023-01-13T09:53:20.236Z,8.60
2023-01-13T09:55:46.930Z,8.60
2023-01-13T09:58:18.739Z,8.60
2023-01-13T10:01:14.953Z,8.50
2023-01-13T10:03:41.894Z,8.60
2023-01-13T10:06:28.998Z,8.60
2023-01-13T10:09:01.315Z,8.70
2023-01-13T10:11:55.333Z,8.70
2023-01-13T10:17:40.145Z,8.80
2023-01-13T10:20:22.503Z,8.80
2023-01-13T10:23:28.785Z,8.80
2023-01-13T10:26:30.732Z,8.80
2023-01-13T10:28:57.997Z,8.70
2023-01-13T10:31:27.666Z,8.70
2023-01-13T10:34:03.943Z,8.80
2023-01-13T10:36:33.022Z,8.80
2023-01-13T10:39:14.761Z,8.80
2023-01-13T10:41:42.445Z,8.70
2023-01-13T10:44:17.569Z,8.70
2023-01-13T10:46:55.829Z,8.70
2023-01-13T10:49:39.387Z,8.60
2023-01-13T10:52:27.343Z,8.60
2023-01-13T10:54:55.257Z,8.50
2023-01-13T10:57:25.050Z,8.60
2023-01-13T10:59:56.575Z,8.60
2023-01-13T11:02:32.546Z,8.60
2023-01-13T11:05:21.790Z,8.70
2023-01-13T11:07:54.621Z,8.80
2023-01-13T11:10:31.252Z,8.70
2023-01-13T11:13:59.338Z,9.00
2023-01-13T11:16:26.876Z,9.10
2023-01-13T11:19:02.774Z,9.00
2023-01-13T11:21:43.568Z,9.10
2023-01-13T11:24:27.221Z,9.10
2023-01-13T11:27:06.165Z,9.10
2023-01-13T11:29:54.076Z,9.10
2023-01-13T11:32:23.861Z,8.90
2023-01-13T11:34:56.973Z,8.90
2023-01-13T11:37:27.732Z,8.90
2023-01-13T11:40:24.750Z,8.80
2023-01-13T11:43:03.224Z,8.80
2023-01-13T11:45:41.664Z,8.90
2023-01-13T11:48:15.176Z,8.80
2023-01-13T11:50:51.299Z,8.70
2023-01-13T11:53:47.827Z,8.70
2023-01-13T11:56:39.375Z,8.70
2023-01-13T11:59:11.064Z,8.60
2023-01-13T12:02:07.843Z,8.50
2023-01-13T12:05:01.892Z,8.50
2023-01-13T12:07:47.358Z,8.50
2023-01-13T12:10:16.657Z,8.50
2023-01-13T12:13:21.721Z,8.40
2023-01-13T12:16:25.219Z,8.50
2023-01-13T12:19:11.275Z,8.50
2023-01-13T12:22:12.052Z,8.40
2023-01-13T12:24:55.148Z,8.40
2023-01-13T12:27:41.395Z,8.40
2023-01-13T12:30:25.484Z,8.40
2023-01-13T12:32:57.599Z,8.40
2023-01-13T12:35:36.170Z,8.40
2023-01-13T12:38:21.153Z,8.30
2023-01-13T12:40:56.406Z,8.20
2023-01-13T12:43:43.015Z,8.20
2023-01-13T12:46:34.010Z,8.20
2023-01-13T12:49:07.349Z,8.20
2023-01-13T12:52:12.607Z,8.10
2023-01-13T12:54:44.851Z,8.10
2023-01-13T12:57:24.997Z,8.00
2023-01-13T13:00:05.161Z,8.00
2023-01-13T13:02:39.841Z,8.00
2023-01-13T13:05:15.767Z,7.90
2023-01-13T13:07:46.894Z,7.90
2023-01-13T13:10:30.060Z,7.90
2023-01-13T13:13:20.241Z,8.00
2023-01-13T13:15:51.499Z,7.90
2023-01-13T13:18:18.293Z,7.90
2023-01-13T13:21:00.737Z,8.00
2023-01-13T13:23:50.167Z,8.00
2023-01-13T13:26:38.353Z,8.10
2023-01-13T13:29:38.725Z,8.00
2023-01-13T13:32:31.507Z,8.00
2023-01-13T13:35:19.248Z,8.10
2023-01-13T13:38:18.561Z,8.10
2023-01-13T13:41:06.339Z,8.10
2023-01-13T13:44:00.734Z,8.10
2023-01-13T13:46:48.003Z,8.10
2023-01-13T13:49:25.597Z,8.10
2023-01-13T13:52:08.781Z,8.20
2023-01-13T13:54:36.413Z,8.20
2023-01-13T13:59:58.036Z,8.20
2023-01-13T14:02:34.791Z,8.20
2023-01-13T14:05:17.063Z,8.20
2023-01-13T14:07:46.542Z,8.30
2023-01-13T14:10:28.152Z,8.20
2023-01-13T14:12:54.729Z,8.20
2023-01-13T14:15:34.943Z,8.10
2023-01-13T14:18:13.570Z,8.20
2023-01-13T14:20:44.368Z,8.10
2023-01-13T14:23:18.251Z,8.20
2023-01-13T14:25:50.366Z,8.20
2023-01-13T14:28:22.607Z,8.10
2023-01-13T14:30:50.902Z,8.00
2023-01-13T14:33:23.192Z,8.10
2023-01-13T14:36:04.958Z,8.00
2023-01-13T14:38:31.530Z,8.00
2023-01-13T14:41:14.363Z,8.00
2023-01-13T14:43:47.216Z,8.10
2023-01-13T14:46:14.572Z,8.10
2023-01-13T14:48:46.952Z,8.10
2023-01-13T14:51:22.328Z,8.10
2023-01-13T14:53:49.743Z,8.10
2023-01-13T14:56:36.517Z,8.00
2023-01-13T14:59:41.416Z,7.90
2023-01-13T15:02:56.511Z,7.80
2023-01-13T15:05:35.430Z,7.70
2023-01-13T15:08:04.492Z,7.50
2023-01-13T15:10:45.684Z,7.50
2023-01-13T15:13:32.088Z,7.50
2023-01-13T15:16:01.610Z,7.50
2023-01-13T15:18:28.396Z,7.60
2023-01-13T15:20:55.278Z,7.50
2023-01-13T15:23:22.196Z,7.50
2023-01-13T15:25:49.475Z,7.50
2023-01-13T15:28:26.889Z,7.50
2023-01-13T15:30:55.212Z,7.50
2023-01-13T15:33:22.781Z,7.60
2023-01-13T15:35:51.675Z,7.50
2023-01-13T15:41:13.975Z,7.50
2023-01-13T15:43:59.314Z,7.60
2023-01-13T15:46:38.258Z,7.60
2023-01-13T15:49:34.761Z,7.60
2023-01-13T15:52:13.994Z,7.60
2023-01-13T15:54:40.799Z,7.60
2023-01-13T15:57:16.321Z,7.60
2023-01-13T15:59:43.057Z,7.60
2023-01-13T16:02:15.865Z,7.50
2023-01-13T16:04:42.504Z,7.50
2023-01-13T16:07:18.423Z,7.40
2023-01-13T16:09:45.752Z,7.40
2023-01-13T16:12:13.706Z,7.40
2023-01-13T16:14:40.594Z,7.40
2023-01-13T16:17:16.414Z,7.40
2023-01-13T16:19:43.904Z,7.40
2023-01-13T16:22:14.156Z,7.40
2023-01-13T16:24:40.982Z,7.40
2023-01-13T16:27:21.403Z,7.40
2023-01-13T16:29:49.414Z,7.40
2023-01-13T16:32:17.201Z,7.40
2023-01-13T16:34:44.193Z,7.50
2023-01-13T16:37:25.668Z,7.50
2023-01-13T16:39:53.827Z,7.50
2023-01-13T16:42:21.215Z,7.40
2023-01-13T16:44:51.351Z,7.40
2023-01-13T16:47:19.140Z,7.40
2023-01-13T16:49:46.277Z,7.40
2023-01-13T16:52:13.196Z,7.40
2023-01-13T16:54:40.049Z,7.40
2023-01-13T16:57:07.724Z,7.40
2023-01-13T16:59:34.665Z,7.40
2023-01-13T17:02:02.113Z,7.40
2023-01-13T17:04:29.004Z,7.40
2023-01-13T17:07:04.461Z,7.40
2023-01-13T17:09:31.453Z,7.40
2023-01-13T17:12:03.358Z,7.40
2023-01-13T17:14:30.104Z,7.50
2023-01-13T17:16:58.190Z,7.50
2023-01-13T17:19:25.726Z,7.50
2023-01-13T17:21:52.761Z,7.50
2023-01-13T17:24:19.652Z,7.50
2023-01-13T17:26:49.310Z,7.50
2023-01-13T17:29:22.669Z,7.60
2023-01-13T17:31:51.042Z,7.60
2023-01-13T17:34:18.662Z,7.60
2023-01-13T17:36:50.901Z,7.60
2023-01-13T17:39:20.340Z,7.70
2023-01-13T17:41:47.634Z,7.60
2023-01-13T17:44:16.610Z,7.60
2023-01-13T17:46:44.036Z,7.70
2023-01-13T17:49:18.144Z,7.70
2023-01-13T17:51:48.053Z,7.70
2023-01-13T17:54:15.392Z,7.60
2023-01-13T17:56:47.206Z,7.60
2023-01-13T17:59:16.418Z,7.60
2023-01-13T18:01:43.480Z,7.60
2023-01-13T18:04:18.736Z,7.70
2023-01-13T18:06:45.751Z,7.60
2023-01-13T18:09:12.884Z,7.60
2023-01-13T18:11:40.563Z,7.50
2023-01-13T18:14:08.242Z,7.50
2023-01-13T18:16:35.038Z,7.50
2023-01-13T18:19:20.769Z,7.40
2023-01-13T18:22:09.819Z,7.30
2023-01-13T18:24:55.001Z,7.30
2023-01-13T18:27:29.768Z,7.20
2023-01-13T18:29:58.365Z,7.20
2023-01-13T18:32:34.864Z,7.20
2023-01-13T18:35:09.124Z,7.20
2023-01-13T18:37:38.752Z,7.20
2023-01-13T18:40:07.452Z,7.20
2023-01-13T18:42:55.030Z,7.10
2023-01-13T18:45:26.260Z,7.20
2023-01-13T18:47:56.216Z,7.20
2023-01-13T18:50:23.566Z,7.20
2023-01-13T18:52:50.811Z,7.20
2023-01-13T18:55:17.853Z,7.20
2023-01-13T18:57:44.720Z,7.10
2023-01-13T19:00:14.582Z,7.00
2023-01-13T19:02:41.379Z,7.10
2023-01-13T19:05:09.029Z,7.00
2023-01-13T19:07:36.320Z,7.00
2023-01-13T19:12:48.642Z,7.00
2023-01-13T19:15:16.142Z,7.00
2023-01-13T19:17:45.026Z,7.00
2023-01-13T19:20:12.014Z,7.00
2023-01-13T19:22:38.987Z,7.00
2023-01-13T19:25:06.888Z,7.10
2023-01-13T19:27:33.724Z,7.10
2023-01-13T19:30:02.613Z,7.10
2023-01-13T19:32:30.833Z,7.00
2023-01-13T19:40:41.103Z,7.10
2023-01-13T19:43:27.754Z,7.10
2023-01-13T19:45:54.387Z,7.20
2023-01-13T19:48:25.440Z,7.10
2023-01-13T19:50:52.800Z,7.10
2023-01-13T19:53:19.562Z,7.10
2023-01-13T19:55:48.589Z,7.10
2023-01-13T19:58:21.527Z,7.10
2023-01-13T20:00:48.697Z,7.10
2023-01-13T20:03:16.922Z,7.10
2023-01-13T20:05:43.576Z,7.10
2023-01-13T20:08:11.003Z,7.10
2023-01-13T20:10:44.231Z,7.50
2023-01-13T20:13:10.903Z,7.20
2023-01-13T20:15:41.502Z,7.20
2023-01-13T20:18:09.269Z,7.20
2023-01-13T20:20:37.541Z,7.20
2023-01-13T20:23:04.412Z,7.30
2023-01-13T20:25:31.036Z,7.30
2023-01-13T20:27:58.701Z,7.20
2023-01-13T20:30:25.414Z,7.20
2023-01-13T20:32:52.906Z,7.20
2023-01-13T20:35:19.705Z,7.20
2023-01-13T20:37:46.429Z,7.20
2023-01-13T20:40:17.943Z,7.40
2023-01-13T20:42:45.066Z,7.20
2023-01-13T20:45:19.808Z,7.20
2023-01-13T20:47:46.919Z,7.30
2023-01-13T20:50:14.518Z,7.30
2023-01-13T20:52:41.639Z,7.30
2023-01-13T20:55:09.463Z,7.30
2023-01-13T20:57:36.353Z,7.30
2023-01-13T21:00:05.327Z,7.30
2023-01-13T21:02:32.000Z,7.30
2023-01-13T21:04:58.655Z,7.30
2023-01-13T21:07:25.427Z,7.40
2023-01-13T21:09:52.593Z,7.40
2023-01-13T21:12:38.159Z,7.40
2023-01-13T21:15:17.288Z,7.40
2023-01-13T21:18:07.151Z,7.40
2023-01-13T21:20:35.805Z,7.50
2023-01-13T21:23:04.670Z,7.50
2023-01-13T21:25:33.963Z,7.40
2023-01-13T21:28:11.786Z,7.40
2023-01-13T21:33:20.172Z,7.20
2023-01-13T21:35:46.974Z,7.10
2023-01-13T21:38:13.966Z,7.80
2023-01-13T21:40:43.935Z,7.10
2023-01-13T21:43:35.609Z,7.10
2023-01-13T21:46:20.698Z,7.10
2023-01-13T21:48:50.610Z,7.20
2023-01-13T21:51:17.931Z,7.20
2023-01-13T21:53:44.632Z,7.20
2023-01-13T21:56:11.452Z,7.70
2023-01-13T21:58:39.117Z,7.30
2023-01-13T22:01:09.055Z,7.30
2023-01-13T22:03:56.829Z,7.40
2023-01-13T22:06:24.572Z,6.50
2023-01-13T22:08:51.532Z,7.50
2023-01-13T22:11:18.207Z,7.40
2023-01-13T22:14:03.748Z,7.40
2023-01-13T22:16:31.756Z,8.40
2023-01-13T22:18:58.569Z,8.20
2023-01-13T22:21:25.363Z,7.10
2023-01-13T22:23:52.200Z,7.00
2023-01-13T22:26:19.255Z,6.70
2023-01-13T22:28:46.659Z,7.10
2023-01-13T22:31:19.125Z,7.10
2023-01-13T22:33:47.429Z,7.00
2023-01-13T22:36:15.209Z,7.10
2023-01-13T22:38:44.023Z,7.20
2023-01-13T22:41:10.756Z,7.00
2023-01-13T22:43:39.654Z,7.20
2023-01-13T22:46:12.089Z,7.10
2023-01-13T22:48:39.787Z,7.10
2023-01-13T22:51:12.732Z,7.70
2023-01-13T22:53:40.849Z,7.10
2023-01-13T22:56:14.802Z,7.30
2023-01-13T22:58:41.791Z,7.20
2023-01-13T23:01:15.164Z,7.80
2023-01-13T23:03:42.382Z,7.20
2023-01-13T23:06:09.365Z,7.50
2023-01-13T23:08:36.590Z,7.20
2023-01-13T23:11:09.272Z,7.20
2023-01-13T23:13:38.097Z,7.70
2023-01-13T23:16:07.067Z,7.20
2023-01-13T23:18:33.912Z,7.20
2023-01-13T23:21:10.186Z,7.20
2023-01-13T23:23:37.582Z,7.20
2023-01-13T23:26:05.341Z,7.30
2023-01-13T23:28:33.508Z,7.20
2023-01-13T23:31:00.558Z,7.40
2023-01-13T23:33:27.572Z,7.40
2023-01-13T23:35:57.545Z,7.40
2023-01-13T23:38:24.873Z,7.40
2023-01-13T23:40:52.324Z,7.50
2023-01-13T23:43:19.184Z,7.40
2023-01-13T23:45:46.210Z,7.40
2023-01-13T23:48:14.494Z,7.40
2023-01-13T23:50:41.901Z,7.40
2023-01-13T23:53:08.965Z,7.50
2023-01-13T23:55:36.044Z,7.40
2023-01-13T23:58:02.932Z,7.30
